sensor_id;sensor_type;location;lat;lon;timestamp;temperature;humidity
20337;DHT22;10326;53.660;10.200;2022-09-30T00:00:58;13.60;82.60
20337;DHT22;10326;53.660;10.200;2022-09-30T00:03:25;13.60;82.50
20337;DHT22;10326;53.660;10.200;2022-09-30T00:05:57;13.60;82.50
20337;DHT22;10326;53.660;10.200;2022-09-30T00:08:24;13.50;82.30
20337;DHT22;10326;53.660;10.200;2022-09-30T00:10:58;13.50;82.30
20337;DHT22;10326;53.660;10.200;2022-09-30T00:13:26;13.50;82.30
20337;DHT22;10326;53.660;10.200;2022-09-30T00:15:53;13.50;82.40
20337;DHT22;10326;53.660;10.200;2022-09-30T00:18:22;13.40;82.40
20337;DHT22;10326;53.660;10.200;2022-09-30T00:20:49;13.40;82.50
20337;DHT22;10326;53.660;10.200;2022-09-30T00:23:17;13.40;82.50
20337;DHT22;10326;53.660;10.200;2022-09-30T00:25:44;13.40;82.60
20337;DHT22;10326;53.660;10.200;2022-09-30T00:28:12;13.40;82.60
20337;DHT22;10326;53.660;10.200;2022-09-30T00:30:39;13.40;82.70
20337;DHT22;10326;53.660;10.200;2022-09-30T00:33:07;13.30;82.60
20337;DHT22;10326;53.660;10.200;2022-09-30T00:35:36;13.30;82.70
20337;DHT22;10326;53.660;10.200;2022-09-30T00:38:03;13.30;82.60
20337;DHT22;10326;53.660;10.200;2022-09-30T00:40:31;13.30;82.60
20337;DHT22;10326;53.660;10.200;2022-09-30T00:42:58;13.30;82.60
20337;DHT22;10326;53.660;10.200;2022-09-30T00:45:26;13.30;82.60
20337;DHT22;10326;53.660;10.200;2022-09-30T00:47:57;13.30;82.60
20337;DHT22;10326;53.660;10.200;2022-09-30T00:50:36;13.20;82.50
20337;DHT22;10326;53.660;10.200;2022-09-30T00:53:13;13.20;82.60
20337;DHT22;10326;53.660;10.200;2022-09-30T00:55:47;13.20;83.30
20337;DHT22;10326;53.660;10.200;2022-09-30T00:58:22;13.20;82.80
20337;DHT22;10326;53.660;10.200;2022-09-30T01:00:52;13.20;82.90
20337;DHT22;10326;53.660;10.200;2022-09-30T01:03:20;13.20;82.90
20337;DHT22;10326;53.660;10.200;2022-09-30T01:05:50;13.20;82.90
20337;DHT22;10326;53.660;10.200;2022-09-30T01:08:18;13.20;82.90
20337;DHT22;10326;53.660;10.200;2022-09-30T01:10:46;13.20;82.90
20337;DHT22;10326;53.660;10.200;2022-09-30T01:13:14;13.20;83.00
20337;DHT22;10326;53.660;10.200;2022-09-30T01:16:11;13.20;83.00
20337;DHT22;10326;53.660;10.200;2022-09-30T01:18:57;13.20;83.20
20337;DHT22;10326;53.660;10.200;2022-09-30T01:21:45;13.20;83.10
20337;DHT22;10326;53.660;10.200;2022-09-30T01:24:51;13.20;83.10
20337;DHT22;10326;53.660;10.200;2022-09-30T01:28:04;13.20;83.10
20337;DHT22;10326;53.660;10.200;2022-09-30T01:31:06;13.20;83.10
20337;DHT22;10326;53.660;10.200;2022-09-30T01:33:47;13.20;82.70
20337;DHT22;10326;53.660;10.200;2022-09-30T01:36:29;13.10;82.60
20337;DHT22;10326;53.660;10.200;2022-09-30T01:39:16;13.10;82.40
20337;DHT22;10326;53.660;10.200;2022-09-30T01:41:53;13.10;82.30
20337;DHT22;10326;53.660;10.200;2022-09-30T01:44:31;13.10;82.20
20337;DHT22;10326;53.660;10.200;2022-09-30T01:47:07;13.10;81.90
20337;DHT22;10326;53.660;10.200;2022-09-30T01:49:41;13.00;82.20
20337;DHT22;10326;53.660;10.200;2022-09-30T01:52:14;13.00;81.70
20337;DHT22;10326;53.660;10.200;2022-09-30T01:54:45;13.00;81.70
20337;DHT22;10326;53.660;10.200;2022-09-30T01:57:17;12.90;81.70
20337;DHT22;10326;53.660;10.200;2022-09-30T01:59:50;12.90;81.50
20337;DHT22;10326;53.660;10.200;2022-09-30T02:02:24;12.90;81.40
20337;DHT22;10326;53.660;10.200;2022-09-30T02:04:54;12.80;81.10
20337;DHT22;10326;53.660;10.200;2022-09-30T02:07:30;12.80;81.20
20337;DHT22;10326;53.660;10.200;2022-09-30T02:10:01;12.70;81.40
20337;DHT22;10326;53.660;10.200;2022-09-30T02:12:36;12.70;81.30
20337;DHT22;10326;53.660;10.200;2022-09-30T02:15:08;12.70;81.10
20337;DHT22;10326;53.660;10.200;2022-09-30T02:17:41;12.70;81.20
20337;DHT22;10326;53.660;10.200;2022-09-30T02:20:15;12.60;81.00
20337;DHT22;10326;53.660;10.200;2022-09-30T02:22:46;12.60;81.10
20337;DHT22;10326;53.660;10.200;2022-09-30T02:25:17;12.50;81.50
20337;DHT22;10326;53.660;10.200;2022-09-30T02:27:49;12.50;81.00
20337;DHT22;10326;53.660;10.200;2022-09-30T02:30:21;12.50;81.10
20337;DHT22;10326;53.660;10.200;2022-09-30T02:32:52;12.40;81.10
20337;DHT22;10326;53.660;10.200;2022-09-30T02:35:24;12.40;81.20
20337;DHT22;10326;53.660;10.200;2022-09-30T02:37:55;12.40;81.40
20337;DHT22;10326;53.660;10.200;2022-09-30T02:40:28;12.40;81.60
20337;DHT22;10326;53.660;10.200;2022-09-30T02:42:57;12.40;81.90
20337;DHT22;10326;53.660;10.200;2022-09-30T02:45:24;12.40;82.10
20337;DHT22;10326;53.660;10.200;2022-09-30T02:48:05;12.40;82.30
20337;DHT22;10326;53.660;10.200;2022-09-30T02:50:46;12.40;83.30
20337;DHT22;10326;53.660;10.200;2022-09-30T02:53:20;12.40;82.70
20337;DHT22;10326;53.660;10.200;2022-09-30T02:56:03;12.40;82.80
20337;DHT22;10326;53.660;10.200;2022-09-30T02:58:35;12.50;83.10
20337;DHT22;10326;53.660;10.200;2022-09-30T03:01:05;12.50;83.60
20337;DHT22;10326;53.660;10.200;2022-09-30T03:03:36;12.50;83.10
20337;DHT22;10326;53.660;10.200;2022-09-30T03:06:06;12.60;83.30
20337;DHT22;10326;53.660;10.200;2022-09-30T03:08:34;12.60;83.30
20337;DHT22;10326;53.660;10.200;2022-09-30T03:11:02;12.60;83.30
20337;DHT22;10326;53.660;10.200;2022-09-30T03:13:46;12.60;83.30
20337;DHT22;10326;53.660;10.200;2022-09-30T03:16:27;12.70;83.60
20337;DHT22;10326;53.660;10.200;2022-09-30T03:19:21;12.70;84.00
20337;DHT22;10326;53.660;10.200;2022-09-30T03:22:09;12.70;83.60
20337;DHT22;10326;53.660;10.200;2022-09-30T03:24:57;12.70;83.50
20337;DHT22;10326;53.660;10.200;2022-09-30T03:27:54;12.80;83.50
20337;DHT22;10326;53.660;10.200;2022-09-30T03:30:31;12.80;83.40
20337;DHT22;10326;53.660;10.200;2022-09-30T03:33:06;12.80;83.40
20337;DHT22;10326;53.660;10.200;2022-09-30T03:35:43;12.80;83.40
20337;DHT22;10326;53.660;10.200;2022-09-30T03:38:23;12.80;83.40
20337;DHT22;10326;53.660;10.200;2022-09-30T03:41:03;12.80;83.50
20337;DHT22;10326;53.660;10.200;2022-09-30T03:43:37;12.80;83.40
20337;DHT22;10326;53.660;10.200;2022-09-30T03:46:15;12.80;83.30
20337;DHT22;10326;53.660;10.200;2022-09-30T03:48:48;12.90;83.40
20337;DHT22;10326;53.660;10.200;2022-09-30T03:51:18;12.90;83.30
20337;DHT22;10326;53.660;10.200;2022-09-30T03:53:46;12.90;83.20
20337;DHT22;10326;53.660;10.200;2022-09-30T03:56:13;12.90;83.10
20337;DHT22;10326;53.660;10.200;2022-09-30T03:58:42;12.90;83.10
20337;DHT22;10326;53.660;10.200;2022-09-30T04:01:16;12.90;83.00
20337;DHT22;10326;53.660;10.200;2022-09-30T04:03:46;12.90;82.90
20337;DHT22;10326;53.660;10.200;2022-09-30T04:06:18;12.90;82.90
20337;DHT22;10326;53.660;10.200;2022-09-30T04:08:46;12.90;82.90
20337;DHT22;10326;53.660;10.200;2022-09-30T04:11:13;12.90;82.80
20337;DHT22;10326;53.660;10.200;2022-09-30T04:13:40;12.80;82.80
20337;DHT22;10326;53.660;10.200;2022-09-30T04:16:08;12.80;82.80
20337;DHT22;10326;53.660;10.200;2022-09-30T04:18:35;12.80;82.80
20337;DHT22;10326;53.660;10.200;2022-09-30T04:21:05;12.80;82.80
20337;DHT22;10326;53.660;10.200;2022-09-30T04:23:35;12.80;82.80
20337;DHT22;10326;53.660;10.200;2022-09-30T04:26:03;12.80;82.90
20337;DHT22;10326;53.660;10.200;2022-09-30T04:28:31;12.80;83.00
20337;DHT22;10326;53.660;10.200;2022-09-30T04:30:59;12.80;83.10
20337;DHT22;10326;53.660;10.200;2022-09-30T04:33:26;12.80;83.10
20337;DHT22;10326;53.660;10.200;2022-09-30T04:35:54;12.80;83.30
20337;DHT22;10326;53.660;10.200;2022-09-30T04:38:22;12.80;83.30
20337;DHT22;10326;53.660;10.200;2022-09-30T04:40:51;12.80;83.30
20337;DHT22;10326;53.660;10.200;2022-09-30T04:43:19;12.80;83.30
20337;DHT22;10326;53.660;10.200;2022-09-30T04:45:49;12.80;83.30
20337;DHT22;10326;53.660;10.200;2022-09-30T04:48:17;12.80;83.40
20337;DHT22;10326;53.660;10.200;2022-09-30T04:50:46;12.80;83.40
20337;DHT22;10326;53.660;10.200;2022-09-30T04:53:13;12.80;83.30
20337;DHT22;10326;53.660;10.200;2022-09-30T04:55:41;12.90;83.50
20337;DHT22;10326;53.660;10.200;2022-09-30T04:58:10;12.90;83.50
20337;DHT22;10326;53.660;10.200;2022-09-30T05:00:37;12.90;83.50
20337;DHT22;10326;53.660;10.200;2022-09-30T05:03:05;12.90;83.50
20337;DHT22;10326;53.660;10.200;2022-09-30T05:05:32;12.90;83.50
20337;DHT22;10326;53.660;10.200;2022-09-30T05:08:00;12.90;83.50
20337;DHT22;10326;53.660;10.200;2022-09-30T05:10:28;12.90;83.50
20337;DHT22;10326;53.660;10.200;2022-09-30T05:12:56;12.90;83.50
20337;DHT22;10326;53.660;10.200;2022-09-30T05:15:25;12.90;83.50
20337;DHT22;10326;53.660;10.200;2022-09-30T05:17:53;12.90;83.50
20337;DHT22;10326;53.660;10.200;2022-09-30T05:20:20;12.90;83.40
20337;DHT22;10326;53.660;10.200;2022-09-30T05:22:47;12.90;83.40
20337;DHT22;10326;53.660;10.200;2022-09-30T05:25:19;12.90;83.40
20337;DHT22;10326;53.660;10.200;2022-09-30T05:27:48;12.90;83.30
20337;DHT22;10326;53.660;10.200;2022-09-30T05:30:15;12.90;83.30
20337;DHT22;10326;53.660;10.200;2022-09-30T05:32:43;12.90;83.30
20337;DHT22;10326;53.660;10.200;2022-09-30T05:35:11;12.90;83.20
20337;DHT22;10326;53.660;10.200;2022-09-30T05:37:39;12.90;83.20
20337;DHT22;10326;53.660;10.200;2022-09-30T05:40:07;12.90;83.00
20337;DHT22;10326;53.660;10.200;2022-09-30T05:42:34;12.90;83.00
20337;DHT22;10326;53.660;10.200;2022-09-30T05:45:03;12.90;82.90
20337;DHT22;10326;53.660;10.200;2022-09-30T05:47:31;12.90;82.90
20337;DHT22;10326;53.660;10.200;2022-09-30T05:49:59;12.90;82.80
20337;DHT22;10326;53.660;10.200;2022-09-30T05:52:28;12.90;82.70
20337;DHT22;10326;53.660;10.200;2022-09-30T05:54:55;12.80;82.60
20337;DHT22;10326;53.660;10.200;2022-09-30T05:57:26;12.80;82.50
20337;DHT22;10326;53.660;10.200;2022-09-30T05:59:53;12.80;82.50
20337;DHT22;10326;53.660;10.200;2022-09-30T06:02:22;12.80;82.50
20337;DHT22;10326;53.660;10.200;2022-09-30T06:04:49;12.80;82.50
20337;DHT22;10326;53.660;10.200;2022-09-30T06:07:18;12.70;82.40
20337;DHT22;10326;53.660;10.200;2022-09-30T06:09:45;12.70;82.30
20337;DHT22;10326;53.660;10.200;2022-09-30T06:12:12;12.70;82.30
20337;DHT22;10326;53.660;10.200;2022-09-30T06:14:40;12.70;82.30
20337;DHT22;10326;53.660;10.200;2022-09-30T06:17:07;12.70;82.40
20337;DHT22;10326;53.660;10.200;2022-09-30T06:19:34;12.70;82.50
20337;DHT22;10326;53.660;10.200;2022-09-30T06:22:01;12.60;82.40
20337;DHT22;10326;53.660;10.200;2022-09-30T06:24:29;12.60;82.50
20337;DHT22;10326;53.660;10.200;2022-09-30T06:26:56;12.60;82.50
20337;DHT22;10326;53.660;10.200;2022-09-30T06:29:24;12.60;82.60
20337;DHT22;10326;53.660;10.200;2022-09-30T06:31:51;12.60;82.60
20337;DHT22;10326;53.660;10.200;2022-09-30T06:34:18;12.60;82.70
20337;DHT22;10326;53.660;10.200;2022-09-30T06:36:45;12.60;82.70
20337;DHT22;10326;53.660;10.200;2022-09-30T06:39:12;12.60;82.90
20337;DHT22;10326;53.660;10.200;2022-09-30T06:41:40;12.60;83.00
20337;DHT22;10326;53.660;10.200;2022-09-30T06:44:08;12.60;83.10
20337;DHT22;10326;53.660;10.200;2022-09-30T06:46:36;12.60;83.20
20337;DHT22;10326;53.660;10.200;2022-09-30T06:49:03;12.60;83.30
20337;DHT22;10326;53.660;10.200;2022-09-30T06:51:31;12.70;83.50
20337;DHT22;10326;53.660;10.200;2022-09-30T06:53:59;12.70;83.60
20337;DHT22;10326;53.660;10.200;2022-09-30T06:56:26;12.70;83.70
20337;DHT22;10326;53.660;10.200;2022-09-30T06:58:55;12.70;83.80
20337;DHT22;10326;53.660;10.200;2022-09-30T07:01:22;12.70;83.80
20337;DHT22;10326;53.660;10.200;2022-09-30T07:03:50;12.70;83.80
20337;DHT22;10326;53.660;10.200;2022-09-30T07:06:23;12.80;83.90
20337;DHT22;10326;53.660;10.200;2022-09-30T07:08:51;12.80;84.00
20337;DHT22;10326;53.660;10.200;2022-09-30T07:11:21;12.80;84.00
20337;DHT22;10326;53.660;10.200;2022-09-30T07:13:49;12.80;84.00
20337;DHT22;10326;53.660;10.200;2022-09-30T07:16:18;12.80;84.20
20337;DHT22;10326;53.660;10.200;2022-09-30T07:18:46;12.90;84.40
20337;DHT22;10326;53.660;10.200;2022-09-30T07:21:14;12.90;84.40
20337;DHT22;10326;53.660;10.200;2022-09-30T07:23:42;12.90;84.50
20337;DHT22;10326;53.660;10.200;2022-09-30T07:26:12;12.90;84.50
20337;DHT22;10326;53.660;10.200;2022-09-30T07:28:40;13.00;84.60
20337;DHT22;10326;53.660;10.200;2022-09-30T07:31:10;12.90;84.60
20337;DHT22;10326;53.660;10.200;2022-09-30T07:33:39;13.00;84.70
20337;DHT22;10326;53.660;10.200;2022-09-30T07:36:07;13.00;84.80
20337;DHT22;10326;53.660;10.200;2022-09-30T07:38:36;13.10;85.00
20337;DHT22;10326;53.660;10.200;2022-09-30T07:41:07;13.10;85.00
20337;DHT22;10326;53.660;10.200;2022-09-30T07:43:38;13.10;85.00
20337;DHT22;10326;53.660;10.200;2022-09-30T07:46:07;13.10;85.00
20337;DHT22;10326;53.660;10.200;2022-09-30T07:48:36;13.20;85.20
20337;DHT22;10326;53.660;10.200;2022-09-30T07:51:10;13.20;85.20
20337;DHT22;10326;53.660;10.200;2022-09-30T07:53:39;13.20;85.20
20337;DHT22;10326;53.660;10.200;2022-09-30T07:56:08;13.30;85.30
20337;DHT22;10326;53.660;10.200;2022-09-30T07:58:36;13.30;85.40
20337;DHT22;10326;53.660;10.200;2022-09-30T08:01:04;13.30;85.50
20337;DHT22;10326;53.660;10.200;2022-09-30T08:03:32;13.40;85.60
20337;DHT22;10326;53.660;10.200;2022-09-30T08:06:05;13.40;85.70
20337;DHT22;10326;53.660;10.200;2022-09-30T08:08:34;13.40;85.90
20337;DHT22;10326;53.660;10.200;2022-09-30T08:11:03;13.40;85.80
20337;DHT22;10326;53.660;10.200;2022-09-30T08:13:32;13.50;86.00
20337;DHT22;10326;53.660;10.200;2022-09-30T08:16:00;13.50;86.10
20337;DHT22;10326;53.660;10.200;2022-09-30T08:18:27;13.50;86.10
20337;DHT22;10326;53.660;10.200;2022-09-30T08:20:55;13.60;86.20
20337;DHT22;10326;53.660;10.200;2022-09-30T08:23:24;13.60;86.10
20337;DHT22;10326;53.660;10.200;2022-09-30T08:25:59;13.60;86.20
20337;DHT22;10326;53.660;10.200;2022-09-30T08:28:27;13.70;86.80
20337;DHT22;10326;53.660;10.200;2022-09-30T08:31:01;13.70;86.10
20337;DHT22;10326;53.660;10.200;2022-09-30T08:33:29;13.80;86.10
20337;DHT22;10326;53.660;10.200;2022-09-30T08:36:01;13.80;86.20
20337;DHT22;10326;53.660;10.200;2022-09-30T08:38:30;13.90;86.50
20337;DHT22;10326;53.660;10.200;2022-09-30T08:41:08;13.90;86.50
20337;DHT22;10326;53.660;10.200;2022-09-30T08:43:53;13.90;86.70
20337;DHT22;10326;53.660;10.200;2022-09-30T08:46:34;14.00;86.80
20337;DHT22;10326;53.660;10.200;2022-09-30T08:49:20;14.00;86.60
20337;DHT22;10326;53.660;10.200;2022-09-30T08:52:00;14.00;86.60
20337;DHT22;10326;53.660;10.200;2022-09-30T08:54:32;14.10;86.60
20337;DHT22;10326;53.660;10.200;2022-09-30T08:57:02;14.10;86.80
20337;DHT22;10326;53.660;10.200;2022-09-30T08:59:34;14.20;86.70
20337;DHT22;10326;53.660;10.200;2022-09-30T09:02:15;14.30;86.70
20337;DHT22;10326;53.660;10.200;2022-09-30T09:04:47;14.30;86.80
20337;DHT22;10326;53.660;10.200;2022-09-30T09:07:29;14.30;86.70
20337;DHT22;10326;53.660;10.200;2022-09-30T09:10:21;14.40;87.00
20337;DHT22;10326;53.660;10.200;2022-09-30T09:12:57;14.40;87.20
20337;DHT22;10326;53.660;10.200;2022-09-30T09:15:44;14.50;87.10
20337;DHT22;10326;53.660;10.200;2022-09-30T09:18:32;14.60;87.10
20337;DHT22;10326;53.660;10.200;2022-09-30T09:21:22;14.60;87.10
20337;DHT22;10326;53.660;10.200;2022-09-30T09:23:59;14.70;87.10
20337;DHT22;10326;53.660;10.200;2022-09-30T09:26:34;14.70;87.10
20337;DHT22;10326;53.660;10.200;2022-09-30T09:31:56;14.80;86.80
20337;DHT22;10326;53.660;10.200;2022-09-30T09:34:24;14.90;86.70
20337;DHT22;10326;53.660;10.200;2022-09-30T09:37:07;14.90;86.60
20337;DHT22;10326;53.660;10.200;2022-09-30T09:40:05;14.90;86.30
20337;DHT22;10326;53.660;10.200;2022-09-30T09:42:46;15.00;86.40
20337;DHT22;10326;53.660;10.200;2022-09-30T09:45:27;15.00;86.60
20337;DHT22;10326;53.660;10.200;2022-09-30T09:47:56;15.10;86.90
20337;DHT22;10326;53.660;10.200;2022-09-30T09:50:31;15.20;87.10
20337;DHT22;10326;53.660;10.200;2022-09-30T09:53:16;15.20;87.10
20337;DHT22;10326;53.660;10.200;2022-09-30T09:56:00;15.30;87.10
20337;DHT22;10326;53.660;10.200;2022-09-30T09:58:29;15.40;87.10
20337;DHT22;10326;53.660;10.200;2022-09-30T10:01:09;15.50;86.60
20337;DHT22;10326;53.660;10.200;2022-09-30T10:04:07;15.60;86.40
20337;DHT22;10326;53.660;10.200;2022-09-30T10:06:44;15.70;85.70
20337;DHT22;10326;53.660;10.200;2022-09-30T10:09:24;15.70;85.80
20337;DHT22;10326;53.660;10.200;2022-09-30T10:12:16;15.80;85.30
20337;DHT22;10326;53.660;10.200;2022-09-30T10:14:51;15.90;84.60
20337;DHT22;10326;53.660;10.200;2022-09-30T10:17:26;16.00;85.00
20337;DHT22;10326;53.660;10.200;2022-09-30T10:19:59;16.00;84.80
20337;DHT22;10326;53.660;10.200;2022-09-30T10:22:29;16.00;84.30
20337;DHT22;10326;53.660;10.200;2022-09-30T10:25:17;16.10;84.50
20337;DHT22;10326;53.660;10.200;2022-09-30T10:27:50;16.20;84.30
20337;DHT22;10326;53.660;10.200;2022-09-30T10:30:39;16.20;84.70
20337;DHT22;10326;53.660;10.200;2022-09-30T10:33:13;16.20;84.20
20337;DHT22;10326;53.660;10.200;2022-09-30T10:35:52;16.30;84.40
20337;DHT22;10326;53.660;10.200;2022-09-30T10:38:22;16.30;83.70
20337;DHT22;10326;53.660;10.200;2022-09-30T10:40:51;16.40;84.00
20337;DHT22;10326;53.660;10.200;2022-09-30T10:43:24;16.40;84.00
20337;DHT22;10326;53.660;10.200;2022-09-30T10:45:54;16.40;83.70
20337;DHT22;10326;53.660;10.200;2022-09-30T10:48:25;16.50;83.90
20337;DHT22;10326;53.660;10.200;2022-09-30T10:50:57;16.50;83.70
20337;DHT22;10326;53.660;10.200;2022-09-30T10:53:26;16.50;83.80
20337;DHT22;10326;53.660;10.200;2022-09-30T10:55:55;16.60;83.90
20337;DHT22;10326;53.660;10.200;2022-09-30T10:58:36;16.60;84.00
20337;DHT22;10326;53.660;10.200;2022-09-30T11:01:16;16.60;83.70
20337;DHT22;10326;53.660;10.200;2022-09-30T11:03:56;16.70;83.30
20337;DHT22;10326;53.660;10.200;2022-09-30T11:06:30;16.70;83.00
20337;DHT22;10326;53.660;10.200;2022-09-30T11:09:03;16.70;83.30
20337;DHT22;10326;53.660;10.200;2022-09-30T11:11:37;16.70;83.60
20337;DHT22;10326;53.660;10.200;2022-09-30T11:14:19;16.80;83.80
20337;DHT22;10326;53.660;10.200;2022-09-30T11:17:03;16.80;83.70
20337;DHT22;10326;53.660;10.200;2022-09-30T11:19:40;16.90;83.90
20337;DHT22;10326;53.660;10.200;2022-09-30T11:22:26;16.90;83.40
20337;DHT22;10326;53.660;10.200;2022-09-30T11:24:55;17.00;82.80
20337;DHT22;10326;53.660;10.200;2022-09-30T11:27:28;17.00;83.50
20337;DHT22;10326;53.660;10.200;2022-09-30T11:30:08;17.10;83.20
20337;DHT22;10326;53.660;10.200;2022-09-30T11:32:48;17.10;82.30
20337;DHT22;10326;53.660;10.200;2022-09-30T11:35:34;17.20;82.30
20337;DHT22;10326;53.660;10.200;2022-09-30T11:38:26;17.20;81.60
20337;DHT22;10326;53.660;10.200;2022-09-30T11:41:07;17.30;81.10
20337;DHT22;10326;53.660;10.200;2022-09-30T11:43:44;17.30;81.60
20337;DHT22;10326;53.660;10.200;2022-09-30T11:46:39;17.40;81.40
20337;DHT22;10326;53.660;10.200;2022-09-30T11:49:23;17.50;81.30
20337;DHT22;10326;53.660;10.200;2022-09-30T11:52:09;17.60;82.40
20337;DHT22;10326;53.660;10.200;2022-09-30T11:55:09;17.60;82.00
20337;DHT22;10326;53.660;10.200;2022-09-30T11:57:53;17.70;81.20
20337;DHT22;10326;53.660;10.200;2022-09-30T12:00:24;17.80;80.70
20337;DHT22;10326;53.660;10.200;2022-09-30T12:02:53;17.80;80.30
20337;DHT22;10326;53.660;10.200;2022-09-30T12:05:28;17.90;80.00
20337;DHT22;10326;53.660;10.200;2022-09-30T12:08:02;17.90;78.90
20337;DHT22;10326;53.660;10.200;2022-09-30T12:10:38;17.90;79.80
20337;DHT22;10326;53.660;10.200;2022-09-30T12:13:15;18.00;79.40
20337;DHT22;10326;53.660;10.200;2022-09-30T12:15:46;18.00;78.70
20337;DHT22;10326;53.660;10.200;2022-09-30T12:18:16;18.10;78.60
20337;DHT22;10326;53.660;10.200;2022-09-30T12:20:50;18.10;79.00
20337;DHT22;10326;53.660;10.200;2022-09-30T12:23:21;18.10;78.70
20337;DHT22;10326;53.660;10.200;2022-09-30T12:25:56;18.20;78.60
20337;DHT22;10326;53.660;10.200;2022-09-30T12:28:30;18.30;78.00
20337;DHT22;10326;53.660;10.200;2022-09-30T12:31:33;18.40;77.20
20337;DHT22;10326;53.660;10.200;2022-09-30T12:34:19;18.50;76.30
20337;DHT22;10326;53.660;10.200;2022-09-30T12:37:20;18.50;76.80
20337;DHT22;10326;53.660;10.200;2022-09-30T12:40:16;18.60;75.90
20337;DHT22;10326;53.660;10.200;2022-09-30T12:43:16;18.70;75.70
20337;DHT22;10326;53.660;10.200;2022-09-30T12:45:59;18.80;74.90
20337;DHT22;10326;53.660;10.200;2022-09-30T12:48:34;18.90;75.90
20337;DHT22;10326;53.660;10.200;2022-09-30T12:51:05;19.00;75.60
20337;DHT22;10326;53.660;10.200;2022-09-30T12:53:35;19.00;73.80
20337;DHT22;10326;53.660;10.200;2022-09-30T12:56:05;19.10;73.50
20337;DHT22;10326;53.660;10.200;2022-09-30T12:58:36;19.10;74.50
20337;DHT22;10326;53.660;10.200;2022-09-30T13:01:13;19.20;74.60
20337;DHT22;10326;53.660;10.200;2022-09-30T13:03:48;19.20;73.90
20337;DHT22;10326;53.660;10.200;2022-09-30T13:06:18;19.30;73.50
20337;DHT22;10326;53.660;10.200;2022-09-30T13:09:05;19.40;73.70
20337;DHT22;10326;53.660;10.200;2022-09-30T13:11:44;19.40;73.70
20337;DHT22;10326;53.660;10.200;2022-09-30T13:14:31;19.50;73.90
20337;DHT22;10326;53.660;10.200;2022-09-30T13:19:54;19.70;71.80
20337;DHT22;10326;53.660;10.200;2022-09-30T13:22:55;19.60;72.40
20337;DHT22;10326;53.660;10.200;2022-09-30T13:25:24;19.60;70.90
20337;DHT22;10326;53.660;10.200;2022-09-30T13:28:24;19.60;72.00
20337;DHT22;10326;53.660;10.200;2022-09-30T13:31:11;19.60;72.30
20337;DHT22;10326;53.660;10.200;2022-09-30T13:33:45;19.50;71.70
20337;DHT22;10326;53.660;10.200;2022-09-30T13:36:28;19.60;72.00
20337;DHT22;10326;53.660;10.200;2022-09-30T13:42:11;19.60;71.00
20337;DHT22;10326;53.660;10.200;2022-09-30T13:44:55;19.60;70.50
20337;DHT22;10326;53.660;10.200;2022-09-30T13:47:28;19.50;68.60
20337;DHT22;10326;53.660;10.200;2022-09-30T13:50:04;19.50;69.80
20337;DHT22;10326;53.660;10.200;2022-09-30T13:52:40;19.40;69.80
20337;DHT22;10326;53.660;10.200;2022-09-30T13:55:12;19.40;70.90
20337;DHT22;10326;53.660;10.200;2022-09-30T13:57:51;19.40;70.40
20337;DHT22;10326;53.660;10.200;2022-09-30T14:00:38;19.40;69.90
20337;DHT22;10326;53.660;10.200;2022-09-30T14:03:22;19.40;69.90
20337;DHT22;10326;53.660;10.200;2022-09-30T14:06:09;19.40;69.70
20337;DHT22;10326;53.660;10.200;2022-09-30T14:08:53;19.40;68.90
20337;DHT22;10326;53.660;10.200;2022-09-30T14:11:53;19.40;68.50
20337;DHT22;10326;53.660;10.200;2022-09-30T14:14:53;19.40;68.90
20337;DHT22;10326;53.660;10.200;2022-09-30T14:18:05;19.30;68.90
20337;DHT22;10326;53.660;10.200;2022-09-30T14:21:21;19.30;68.10
20337;DHT22;10326;53.660;10.200;2022-09-30T14:23:58;19.20;68.00
20337;DHT22;10326;53.660;10.200;2022-09-30T14:26:41;19.20;69.10
20337;DHT22;10326;53.660;10.200;2022-09-30T14:29:42;19.20;67.70
20337;DHT22;10326;53.660;10.200;2022-09-30T14:32:16;19.10;67.30
20337;DHT22;10326;53.660;10.200;2022-09-30T14:34:45;19.10;67.70
20337;DHT22;10326;53.660;10.200;2022-09-30T14:37:18;19.00;68.40
20337;DHT22;10326;53.660;10.200;2022-09-30T14:39:49;19.00;68.20
20337;DHT22;10326;53.660;10.200;2022-09-30T14:42:25;19.00;68.50
20337;DHT22;10326;53.660;10.200;2022-09-30T14:44:58;18.90;67.60
20337;DHT22;10326;53.660;10.200;2022-09-30T14:47:31;18.90;67.50
20337;DHT22;10326;53.660;10.200;2022-09-30T14:50:00;18.80;67.80
20337;DHT22;10326;53.660;10.200;2022-09-30T14:52:37;18.80;67.70
20337;DHT22;10326;53.660;10.200;2022-09-30T14:55:21;18.80;67.60
20337;DHT22;10326;53.660;10.200;2022-09-30T14:57:50;18.70;67.90
20337;DHT22;10326;53.660;10.200;2022-09-30T15:00:21;18.70;68.50
20337;DHT22;10326;53.660;10.200;2022-09-30T15:02:53;18.60;68.20
20337;DHT22;10326;53.660;10.200;2022-09-30T15:05:20;18.60;68.40
20337;DHT22;10326;53.660;10.200;2022-09-30T15:07:48;18.60;68.50
20337;DHT22;10326;53.660;10.200;2022-09-30T15:10:19;18.50;68.70
20337;DHT22;10326;53.660;10.200;2022-09-30T15:12:49;18.50;68.60
20337;DHT22;10326;53.660;10.200;2022-09-30T15:15:32;18.50;68.40
20337;DHT22;10326;53.660;10.200;2022-09-30T15:18:21;18.40;68.00
20337;DHT22;10326;53.660;10.200;2022-09-30T15:20:59;18.40;67.80
20337;DHT22;10326;53.660;10.200;2022-09-30T15:23:32;18.40;68.30
20337;DHT22;10326;53.660;10.200;2022-09-30T15:26:02;18.30;68.30
20337;DHT22;10326;53.660;10.200;2022-09-30T15:28:31;18.30;68.50
20337;DHT22;10326;53.660;10.200;2022-09-30T15:31:00;18.20;68.30
20337;DHT22;10326;53.660;10.200;2022-09-30T15:33:29;18.20;68.30
20337;DHT22;10326;53.660;10.200;2022-09-30T15:36:02;18.20;68.80
20337;DHT22;10326;53.660;10.200;2022-09-30T15:38:32;18.10;68.80
20337;DHT22;10326;53.660;10.200;2022-09-30T15:41:03;18.10;69.00
20337;DHT22;10326;53.660;10.200;2022-09-30T15:43:37;18.10;69.10
20337;DHT22;10326;53.660;10.200;2022-09-30T15:46:19;18.10;69.40
20337;DHT22;10326;53.660;10.200;2022-09-30T15:48:52;18.10;68.80
20337;DHT22;10326;53.660;10.200;2022-09-30T15:51:41;18.00;69.10
20337;DHT22;10326;53.660;10.200;2022-09-30T15:54:29;18.00;69.00
20337;DHT22;10326;53.660;10.200;2022-09-30T15:57:02;18.00;69.50
20337;DHT22;10326;53.660;10.200;2022-09-30T16:00:03;18.00;68.50
20337;DHT22;10326;53.660;10.200;2022-09-30T16:02:34;18.00;68.70
20337;DHT22;10326;53.660;10.200;2022-09-30T16:05:03;18.00;68.50
20337;DHT22;10326;53.660;10.200;2022-09-30T16:07:31;17.90;68.70
20337;DHT22;10326;53.660;10.200;2022-09-30T16:09:58;17.90;68.40